createdAt,value
2023-05-22T00:01:56.694Z,14.00
2023-05-22T00:04:23.935Z,13.90
2023-05-22T00:06:50.808Z,13.90
2023-05-22T00:09:17.895Z,13.90
2023-05-22T00:11:44.889Z,13.80
2023-05-22T00:14:13.450Z,13.80
2023-05-22T00:16:41.155Z,13.70
2023-05-22T00:19:13.292Z,13.70
2023-05-22T00:21:40.474Z,13.60
2023-05-22T00:24:07.431Z,13.50
2023-05-22T00:26:34.216Z,13.40
2023-05-22T00:29:01.334Z,13.30
2023-05-22T00:31:28.850Z,13.30
2023-05-22T00:33:55.898Z,13.20
2023-05-22T00:36:23.630Z,13.20
2023-05-22T00:38:50.895Z,13.10
2023-05-22T00:41:17.788Z,13.10
2023-05-22T00:43:46.413Z,13.00
2023-05-22T00:46:14.527Z,13.00
2023-05-22T00:48:41.548Z,12.90
2023-05-22T00:51:08.946Z,12.90
2023-05-22T00:53:37.110Z,12.90
2023-05-22T00:56:05.041Z,12.80
2023-05-22T00:58:31.905Z,12.80
2023-05-22T01:00:59.505Z,12.70
2023-05-22T01:03:27.460Z,12.70
2023-05-22T01:05:55.677Z,12.60
2023-05-22T01:08:22.833Z,12.60
2023-05-22T01:11:13.024Z,12.50
2023-05-22T01:13:39.795Z,12.50
2023-05-22T01:16:13.041Z,12.40
2023-05-22T01:19:01.169Z,12.40
2023-05-22T01:21:47.762Z,12.40
2023-05-22T01:24:46.019Z,12.40
2023-05-22T01:27:42.832Z,12.30
2023-05-22T01:30:28.844Z,12.30
2023-05-22T01:35:40.874Z,12.10
2023-05-22T01:38:09.066Z,12.10
2023-05-22T01:40:37.844Z,12.10
2023-05-22T01:43:05.053Z,12.00
2023-05-22T01:45:32.016Z,12.00
2023-05-22T01:47:59.051Z,12.00
2023-05-22T01:50:26.584Z,12.00
2023-05-22T01:53:20.110Z,12.00
2023-05-22T01:56:00.922Z,12.00
2023-05-22T01:58:52.757Z,12.00
2023-05-22T02:01:22.511Z,11.90
2023-05-22T02:03:56.525Z,11.90
2023-05-22T02:06:25.951Z,11.90
2023-05-22T02:08:53.959Z,11.90
2023-05-22T02:11:22.888Z,11.90
2023-05-22T02:13:50.143Z,11.80
2023-05-22T02:16:19.331Z,11.80
2023-05-22T02:18:46.585Z,11.80
2023-05-22T02:21:13.441Z,11.80
2023-05-22T02:23:40.835Z,11.70
2023-05-22T02:26:07.652Z,11.70
2023-05-22T02:28:34.506Z,11.70
2023-05-22T02:31:03.491Z,11.60
2023-05-22T02:33:30.885Z,11.60
2023-05-22T02:35:57.739Z,11.60
2023-05-22T02:38:24.526Z,11.60
2023-05-22T02:40:52.127Z,11.60
2023-05-22T02:43:18.961Z,11.60
2023-05-22T02:45:45.804Z,11.60
2023-05-22T02:48:13.170Z,11.50
2023-05-22T02:50:40.370Z,11.60
2023-05-22T02:53:08.422Z,11.50
2023-05-22T02:55:35.320Z,11.50
2023-05-22T02:58:02.931Z,11.50
2023-05-22T03:00:29.733Z,11.40
2023-05-22T03:02:57.209Z,11.30
2023-05-22T03:05:24.091Z,11.30
2023-05-22T03:07:52.871Z,11.20
2023-05-22T03:10:19.815Z,11.20
2023-05-22T03:12:46.659Z,11.20
2023-05-22T03:15:13.738Z,11.10
2023-05-22T03:17:42.151Z,11.10
2023-05-22T03:20:09.456Z,11.10
2023-05-22T03:22:36.345Z,11.10
2023-05-22T03:25:03.960Z,11.10
2023-05-22T03:27:30.771Z,11.10
2023-05-22T03:29:57.576Z,11.00
2023-05-22T03:32:24.417Z,11.00
2023-05-22T03:34:51.772Z,11.00
2023-05-22T03:37:18.609Z,10.90
2023-05-22T03:39:45.414Z,10.90
2023-05-22T03:42:22.270Z,10.90
2023-05-22T03:44:50.012Z,10.90
2023-05-22T03:47:17.609Z,10.90
2023-05-22T03:49:44.514Z,10.90
2023-05-22T03:52:11.493Z,10.90
2023-05-22T03:54:38.298Z,10.90
2023-05-22T03:57:05.859Z,10.90
2023-05-22T03:59:32.635Z,10.90
2023-05-22T04:02:01.018Z,10.90
2023-05-22T04:04:28.568Z,10.90
2023-05-22T04:06:58.158Z,10.90
2023-05-22T04:09:31.226Z,10.90
2023-05-22T04:11:58.775Z,11.00
2023-05-22T04:14:26.207Z,11.00
2023-05-22T04:16:53.342Z,11.00
2023-05-22T04:19:20.516Z,11.10
2023-05-22T04:21:47.601Z,11.10
2023-05-22T04:24:14.476Z,11.10
2023-05-22T04:26:42.671Z,11.20
2023-05-22T04:29:14.498Z,11.20
2023-05-22T04:31:42.216Z,11.30
2023-05-22T04:34:17.009Z,11.30
2023-05-22T04:36:45.221Z,11.40
2023-05-22T04:39:13.886Z,11.40
2023-05-22T04:41:41.108Z,11.50
2023-05-22T04:44:08.116Z,11.60
2023-05-22T04:46:35.999Z,11.60
2023-05-22T04:49:03.320Z,11.70
2023-05-22T04:51:34.860Z,11.80
2023-05-22T04:54:01.693Z,11.80
2023-05-22T04:56:35.995Z,12.00
2023-05-22T04:59:05.611Z,12.10
2023-05-22T05:01:35.079Z,12.10
2023-05-22T05:04:03.708Z,12.20
2023-05-22T05:06:30.796Z,12.30
2023-05-22T05:08:58.090Z,12.40
2023-05-22T05:11:25.002Z,12.50
2023-05-22T05:13:52.882Z,12.60
2023-05-22T05:16:19.693Z,12.70
2023-05-22T05:18:46.670Z,12.80
2023-05-22T05:21:13.720Z,12.90
2023-05-22T05:23:41.091Z,13.00
2023-05-22T05:26:07.906Z,13.10
2023-05-22T05:28:35.275Z,13.20
2023-05-22T05:31:02.922Z,13.30
2023-05-22T05:33:49.100Z,13.50
2023-05-22T05:36:30.267Z,13.60
2023-05-22T05:38:58.449Z,13.80
2023-05-22T05:41:26.974Z,13.90
2023-05-22T05:44:01.469Z,14.10
2023-05-22T05:46:31.187Z,14.30
2023-05-22T05:48:58.541Z,14.40
2023-05-22T05:51:25.461Z,14.60
2023-05-22T05:53:53.217Z,14.70
2023-05-22T05:56:21.232Z,14.90
2023-05-22T05:58:48.478Z,15.10
2023-05-22T06:01:54.023Z,15.30
2023-05-22T06:04:28.137Z,15.50
2023-05-22T06:06:55.059Z,15.70
2023-05-22T06:09:27.054Z,15.90
2023-05-22T06:12:12.912Z,16.20
2023-05-22T06:14:42.681Z,16.40
2023-05-22T06:17:10.039Z,16.60
2023-05-22T06:19:39.515Z,16.80
2023-05-22T06:22:06.706Z,17.00
2023-05-22T06:24:34.130Z,17.20
2023-05-22T06:27:06.824Z,17.50
2023-05-22T06:29:34.330Z,17.70
2023-05-22T06:32:01.191Z,17.90
2023-05-22T06:34:29.750Z,18.10
2023-05-22T06:36:58.544Z,18.40
2023-05-22T06:39:31.893Z,18.80
2023-05-22T06:42:13.862Z,19.00
2023-05-22T06:44:59.417Z,19.40
2023-05-22T06:47:34.923Z,19.80
2023-05-22T06:50:01.917Z,20.10
2023-05-22T06:52:28.949Z,20.40
2023-05-22T06:54:57.480Z,20.70
2023-05-22T06:57:24.603Z,21.00
2023-05-22T06:59:51.509Z,21.30
2023-05-22T07:02:44.024Z,21.70
2023-05-22T07:05:21.188Z,22.20
2023-05-22T07:07:57.037Z,22.50
2023-05-22T07:10:27.441Z,22.90
2023-05-22T07:12:54.648Z,23.10
2023-05-22T07:15:21.618Z,23.40
2023-05-22T07:17:52.544Z,23.70
2023-05-22T07:20:19.372Z,23.90
2023-05-22T07:22:58.526Z,24.10
2023-05-22T07:25:25.633Z,24.50
2023-05-22T07:27:52.628Z,24.60
2023-05-22T07:30:22.280Z,24.80
2023-05-22T07:32:49.598Z,25.20
2023-05-22T07:35:16.685Z,25.50
2023-05-22T07:37:44.042Z,25.80
2023-05-22T07:40:11.287Z,25.90
2023-05-22T07:42:38.400Z,26.10
2023-05-22T07:45:07.436Z,26.40
2023-05-22T07:47:34.345Z,26.60
2023-05-22T07:50:04.264Z,27.00
2023-05-22T07:52:32.842Z,27.10
2023-05-22T07:55:00.166Z,27.40
2023-05-22T07:57:29.804Z,27.70
2023-05-22T08:00:00.533Z,28.00
2023-05-22T08:02:27.583Z,28.20
2023-05-22T08:04:54.559Z,28.60
2023-05-22T08:07:21.359Z,28.70
2023-05-22T08:09:48.174Z,28.90
2023-05-22T08:12:14.975Z,29.10
2023-05-22T08:14:41.883Z,29.40
2023-05-22T08:17:08.700Z,29.70
2023-05-22T08:19:35.591Z,29.80
2023-05-22T08:22:02.371Z,29.90
2023-05-22T08:24:30.534Z,30.00
2023-05-22T08:26:58.618Z,30.30
2023-05-22T08:29:25.515Z,30.60
2023-05-22T08:31:53.900Z,30.90
2023-05-22T08:34:20.815Z,31.30
2023-05-22T08:36:49.004Z,31.50
2023-05-22T08:39:16.173Z,31.70
2023-05-22T08:41:43.857Z,31.90
2023-05-22T08:44:13.749Z,32.00
2023-05-22T08:46:41.858Z,32.10
2023-05-22T08:49:13.058Z,32.30
2023-05-22T08:51:42.295Z,32.40
2023-05-22T08:54:09.911Z,32.50
2023-05-22T08:56:39.681Z,32.50
2023-05-22T08:59:12.770Z,32.70
2023-05-22T09:01:39.909Z,32.90
2023-05-22T09:04:06.876Z,33.20
2023-05-22T09:06:33.778Z,33.40
2023-05-22T09:09:01.530Z,33.60
2023-05-22T09:11:28.339Z,33.70
2023-05-22T09:14:10.130Z,33.90
2023-05-22T09:16:52.802Z,34.00
2023-05-22T09:19:19.802Z,34.30
2023-05-22T09:21:48.069Z,34.00
2023-05-22T09:24:15.134Z,33.30
2023-05-22T09:26:42.198Z,33.10
2023-05-22T09:29:09.598Z,33.20
2023-05-22T09:31:44.049Z,33.50
2023-05-22T09:34:16.040Z,33.90
2023-05-22T09:36:43.487Z,34.20
2023-05-22T09:39:10.932Z,34.40
2023-05-22T09:41:39.943Z,34.50
2023-05-22T09:44:16.773Z,34.30
2023-05-22T09:46:47.798Z,33.90
2023-05-22T09:49:17.063Z,33.40
2023-05-22T09:51:48.360Z,33.50
2023-05-22T09:54:16.956Z,33.60
2023-05-22T09:56:44.724Z,33.50
2023-05-22T09:59:14.436Z,33.40
2023-05-22T10:01:42.593Z,33.50
2023-05-22T10:04:16.094Z,33.40
2023-05-22T10:06:45.196Z,33.20
2023-05-22T10:09:19.202Z,33.50
2023-05-22T10:11:47.499Z,33.40
2023-05-22T10:14:15.796Z,33.50
2023-05-22T10:16:44.941Z,33.70
2023-05-22T10:19:12.897Z,33.50
2023-05-22T10:21:41.629Z,33.40
2023-05-22T10:24:09.969Z,33.60
2023-05-22T10:26:37.586Z,33.70
2023-05-22T10:29:12.499Z,33.60
2023-05-22T10:31:58.138Z,33.10
2023-05-22T10:34:56.588Z,33.10
2023-05-22T10:37:53.272Z,33.10
2023-05-22T10:40:28.843Z,33.00
2023-05-22T10:42:59.720Z,33.20
2023-05-22T10:45:30.730Z,33.30
2023-05-22T10:48:04.803Z,33.40
2023-05-22T10:50:31.719Z,33.40
2023-05-22T10:53:28.033Z,33.40
2023-05-22T10:56:02.538Z,33.80
2023-05-22T10:58:30.962Z,34.20
2023-05-22T11:01:17.080Z,34.70
2023-05-22T11:03:58.762Z,35.20
2023-05-22T11:06:37.570Z,35.40
2023-05-22T11:09:32.352Z,35.70
2023-05-22T11:12:24.376Z,35.80
2023-05-22T11:14:55.220Z,35.60
2023-05-22T11:17:30.682Z,35.10
2023-05-22T11:20:05.829Z,34.50
2023-05-22T11:22:36.806Z,34.10
2023-05-22T11:25:07.537Z,33.80
2023-05-22T11:27:35.452Z,33.70
2023-05-22T11:30:02.750Z,33.50
2023-05-22T11:32:29.904Z,33.50
2023-05-22T11:34:57.705Z,33.40
2023-05-22T11:37:24.668Z,33.80
2023-05-22T11:40:04.694Z,34.40
2023-05-22T11:42:31.775Z,35.00
2023-05-22T11:44:59.054Z,35.40
2023-05-22T11:47:29.022Z,35.40
2023-05-22T11:49:59.961Z,35.40
2023-05-22T11:52:32.378Z,35.10
2023-05-22T11:54:59.842Z,34.70
2023-05-22T11:57:26.815Z,34.50
2023-05-22T11:59:53.925Z,34.70
2023-05-22T12:02:20.760Z,34.70
2023-05-22T12:04:47.598Z,34.40
2023-05-22T12:07:14.523Z,34.00
2023-05-22T12:09:42.464Z,33.70
2023-05-22T12:12:13.245Z,33.20
2023-05-22T12:14:45.092Z,32.70
2023-05-22T12:17:17.329Z,32.00
2023-05-22T12:19:47.158Z,31.50
2023-05-22T12:22:14.611Z,31.10
2023-05-22T12:24:46.011Z,30.90
2023-05-22T12:27:13.772Z,30.90
2023-05-22T12:29:41.739Z,31.10
2023-05-22T12:32:11.146Z,31.40
2023-05-22T12:34:47.990Z,31.30
2023-05-22T12:37:22.787Z,31.20
2023-05-22T12:40:00.482Z,31.10
2023-05-22T12:42:28.306Z,31.00
2023-05-22T12:44:57.243Z,30.80
2023-05-22T12:47:24.922Z,30.80
2023-05-22T12:49:52.107Z,30.60
2023-05-22T12:52:19.249Z,30.50
2023-05-22T12:54:46.153Z,30.50
2023-05-22T12:57:13.127Z,30.40
2023-05-22T12:59:41.156Z,30.50
2023-05-22T13:02:08.279Z,30.80
2023-05-22T13:04:35.318Z,31.30
2023-05-22T13:07:02.329Z,31.80
2023-05-22T13:09:29.227Z,31.90
2023-05-22T13:11:56.469Z,31.60
2023-05-22T13:14:23.361Z,31.60
2023-05-22T13:16:50.152Z,31.50
2023-05-22T13:19:17.090Z,31.60
2023-05-22T13:21:44.095Z,31.50
2023-05-22T13:24:11.016Z,31.60
2023-05-22T13:26:37.877Z,32.00
2023-05-22T13:29:04.919Z,32.50
2023-05-22T13:31:37.153Z,32.90
2023-05-22T13:34:04.688Z,33.20
2023-05-22T13:36:31.736Z,33.40
2023-05-22T13:38:58.587Z,33.40
2023-05-22T13:41:25.674Z,33.60
2023-05-22T13:43:52.522Z,33.50
2023-05-22T13:46:21.335Z,33.50
2023-05-22T13:48:48.223Z,33.50
2023-05-22T13:51:15.019Z,33.50
2023-05-22T13:53:42.188Z,33.70
2023-05-22T13:56:09.037Z,33.80
2023-05-22T13:58:35.827Z,33.80
2023-05-22T14:01:02.690Z,33.70
2023-05-22T14:03:29.554Z,33.60
2023-05-22T14:05:56.455Z,33.40
2023-05-22T14:08:24.206Z,33.00
2023-05-22T14:10:51.113Z,32.70
2023-05-22T14:13:18.000Z,32.40
2023-05-22T14:15:46.978Z,32.00
2023-05-22T14:18:16.349Z,31.80
2023-05-22T14:20:43.930Z,31.70
2023-05-22T14:23:11.725Z,31.60
2023-05-22T14:25:42.891Z,31.40
2023-05-22T14:28:10.541Z,31.30
2023-05-22T14:30:37.675Z,31.10
2023-05-22T14:33:05.063Z,31.00
2023-05-22T14:35:32.613Z,31.00
2023-05-22T14:37:59.523Z,31.00
2023-05-22T14:40:26.318Z,30.90
2023-05-22T14:42:54.372Z,30.90
2023-05-22T14:45:21.480Z,31.10
2023-05-22T14:47:48.411Z,31.10
2023-05-22T14:50:22.211Z,31.10
2023-05-22T14:52:49.752Z,31.10
2023-05-22T14:55:17.147Z,31.10
2023-05-22T14:57:44.075Z,31.00
2023-05-22T15:00:12.229Z,30.90
2023-05-22T15:02:40.400Z,30.80
2023-05-22T15:05:07.833Z,30.60
2023-05-22T15:07:44.208Z,30.40
2023-05-22T15:10:12.504Z,30.30
2023-05-22T15:12:39.358Z,30.10
2023-05-22T15:15:06.627Z,29.90
2023-05-22T15:17:33.478Z,29.60
2023-05-22T15:20:00.537Z,29.40
2023-05-22T15:22:28.656Z,29.10
2023-05-22T15:25:08.173Z,28.80
2023-05-22T15:27:35.892Z,28.60
2023-05-22T15:30:04.263Z,28.20
2023-05-22T15:32:34.348Z,28.00
2023-05-22T15:35:01.249Z,27.70
2023-05-22T15:37:32.222Z,27.50
2023-05-22T15:40:01.380Z,27.40
2023-05-22T15:42:28.419Z,27.50
2023-05-22T15:44:55.449Z,27.50
2023-05-22T15:47:22.414Z,27.60
2023-05-22T15:49:49.220Z,27.70
2023-05-22T15:52:16.357Z,27.70
2023-05-22T15:54:43.334Z,27.40
2023-05-22T15:57:10.103Z,27.20
2023-05-22T15:59:36.974Z,26.90
2023-05-22T16:02:04.068Z,26.60
2023-05-22T16:04:31.208Z,26.40
2023-05-22T16:06:58.016Z,26.20
2023-05-22T16:09:25.487Z,26.20
2023-05-22T16:11:52.377Z,26.00
2023-05-22T16:14:19.173Z,25.60
2023-05-22T16:16:46.013Z,25.50
2023-05-22T16:19:12.855Z,25.40
2023-05-22T16:21:39.811Z,25.20
2023-05-22T16:24:07.107Z,25.10
2023-05-22T16:26:34.127Z,25.00
2023-05-22T16:29:01.045Z,24.90
2023-05-22T16:31:28.700Z,24.90
2023-05-22T16:33:55.825Z,24.80
2023-05-22T16:36:23.285Z,24.70
2023-05-22T16:38:51.385Z,24.70
2023-05-22T16:41:18.243Z,24.50
2023-05-22T16:43:45.022Z,24.10
2023-05-22T16:46:11.902Z,23.90
2023-05-22T16:48:38.724Z,23.60
2023-05-22T16:51:05.567Z,23.50
2023-05-22T16:53:32.329Z,23.30
2023-05-22T16:55:59.823Z,23.20
2023-05-22T16:58:26.758Z,23.00
2023-05-22T17:00:53.743Z,22.90
2023-05-22T17:03:20.752Z,22.80
2023-05-22T17:05:48.016Z,22.70
2023-05-22T17:08:14.904Z,22.60
2023-05-22T17:10:41.758Z,22.40
2023-05-22T17:13:08.809Z,22.30
2023-05-22T17:15:35.769Z,22.30
2023-05-22T17:18:03.903Z,22.20
2023-05-22T17:20:34.102Z,22.20
2023-05-22T17:23:01.029Z,22.20
2023-05-22T17:25:27.929Z,22.20
2023-05-22T17:27:54.718Z,22.10
2023-05-22T17:30:21.607Z,22.00
2023-05-22T17:32:50.106Z,22.00
2023-05-22T17:35:16.937Z,22.00
2023-05-22T17:37:43.729Z,21.90
2023-05-22T17:40:10.784Z,21.80
2023-05-22T17:42:37.664Z,21.80
2023-05-22T17:45:04.893Z,21.70
2023-05-22T17:47:31.774Z,21.60
2023-05-22T17:49:58.558Z,21.40
2023-05-22T17:52:25.746Z,21.30
2023-05-22T17:54:52.846Z,21.20
2023-05-22T17:57:19.673Z,21.10
2023-05-22T17:59:46.492Z,21.00
2023-05-22T18:02:13.549Z,21.00
2023-05-22T18:04:40.650Z,21.00
2023-05-22T18:07:07.451Z,20.90
2023-05-22T18:09:34.283Z,20.90
2023-05-22T18:12:02.377Z,20.80
2023-05-22T18:14:29.385Z,20.70
2023-05-22T18:16:58.180Z,20.60
2023-05-22T18:19:25.012Z,20.60
2023-05-22T18:21:53.589Z,20.50
2023-05-22T18:24:25.089Z,20.50
2023-05-22T18:26:52.335Z,20.40
2023-05-22T18:29:19.200Z,20.30
2023-05-22T18:31:46.188Z,20.30
2023-05-22T18:34:13.635Z,20.20
2023-05-22T18:36:43.661Z,20.20
2023-05-22T18:39:11.663Z,20.20
2023-05-22T18:41:38.524Z,20.10
2023-05-22T18:44:05.410Z,20.00
2023-05-22T18:46:32.235Z,19.90
2023-05-22T18:48:59.128Z,19.90
2023-05-22T18:51:26.735Z,19.80
2023-05-22T18:53:53.715Z,19.70
2023-05-22T18:56:20.563Z,19.70
2023-05-22T18:58:47.379Z,19.60
2023-05-22T19:01:16.637Z,19.50
2023-05-22T19:03:43.539Z,19.50
2023-05-22T19:06:10.415Z,19.40
2023-05-22T19:08:37.221Z,19.30
2023-05-22T19:11:04.092Z,19.20
2023-05-22T19:13:31.571Z,19.20
2023-05-22T19:15:58.401Z,19.10
2023-05-22T19:18:27.331Z,19.00
2023-05-22T19:20:54.461Z,19.00
2023-05-22T19:23:21.452Z,18.90
2023-05-22T19:25:48.859Z,18.90
2023-05-22T19:28:16.264Z,18.80
2023-05-22T19:30:43.548Z,18.70
2023-05-22T19:33:11.160Z,18.70
2023-05-22T19:35:38.713Z,18.60
2023-05-22T19:38:06.040Z,18.50
2023-05-22T19:40:32.969Z,18.50
2023-05-22T19:43:01.289Z,18.40
2023-05-22T19:45:28.353Z,18.40
2023-05-22T19:47:56.216Z,18.40
2023-05-22T19:50:23.094Z,18.30
2023-05-22T19:52:49.960Z,18.30
2023-05-22T19:55:16.963Z,18.30
2023-05-22T19:57:44.755Z,18.20
2023-05-22T20:00:12.655Z,18.20
2023-05-22T20:02:40.469Z,18.20
2023-05-22T20:05:09.492Z,18.10
2023-05-22T20:07:36.561Z,18.00
2023-05-22T20:10:06.512Z,17.90
2023-05-22T20:12:34.220Z,17.90
2023-05-22T20:15:02.673Z,17.80
2023-05-22T20:17:30.101Z,17.80
2023-05-22T20:19:58.813Z,17.80
2023-05-22T20:22:26.592Z,17.70
2023-05-22T20:24:54.291Z,17.70
2023-05-22T20:27:21.220Z,17.60
2023-05-22T20:29:50.228Z,17.60
2023-05-22T20:32:17.149Z,17.60
2023-05-22T20:34:45.485Z,17.50
2023-05-22T20:37:13.811Z,17.50
2023-05-22T20:39:44.301Z,17.40
2023-05-22T20:42:13.041Z,17.40
2023-05-22T20:44:41.351Z,17.30
2023-05-22T20:47:11.262Z,17.30
2023-05-22T20:49:38.357Z,17.30
2023-05-22T20:52:05.779Z,17.20
2023-05-22T20:54:34.733Z,17.10
2023-05-22T20:57:02.018Z,17.10
2023-05-22T20:59:29.081Z,17.10
2023-05-22T21:01:59.272Z,17.10
2023-05-22T21:04:26.410Z,17.00
2023-05-22T21:06:53.294Z,17.00
2023-05-22T21:09:20.220Z,17.00
2023-05-22T21:11:47.159Z,16.90
2023-05-22T21:14:14.473Z,16.90
2023-05-22T21:16:41.320Z,16.80
2023-05-22T21:19:08.253Z,16.80
2023-05-22T21:21:36.329Z,16.80
2023-05-22T21:24:03.365Z,16.70
2023-05-22T21:26:30.362Z,16.70
2023-05-22T21:28:57.319Z,16.60
2023-05-22T21:31:24.170Z,16.50
2023-05-22T21:33:50.984Z,16.50
2023-05-22T21:36:17.842Z,16.40
2023-05-22T21:38:45.459Z,16.40
2023-05-22T21:41:12.831Z,16.40
2023-05-22T21:43:39.764Z,16.40
2023-05-22T21:46:06.638Z,16.40
2023-05-22T21:48:33.565Z,16.30
2023-05-22T21:51:00.415Z,16.30
2023-05-22T21:53:27.245Z,16.30
2023-05-22T21:55:54.019Z,16.20
2023-05-22T21:58:21.055Z,16.10
2023-05-22T22:00:47.866Z,16.10
2023-05-22T22:03:14.774Z,16.00
2023-05-22T22:05:41.696Z,16.00
2023-05-22T22:08:08.569Z,15.90
2023-05-22T22:10:35.683Z,15.90
2023-05-22T22:13:02.643Z,15.90
2023-05-22T22:15:29.718Z,15.80
2023-05-22T22:18:02.266Z,15.80
2023-05-22T22:20:44.421Z,15.80
2023-05-22T22:23:12.233Z,15.80
2023-05-22T22:25:39.393Z,15.80
2023-05-22T22:28:07.335Z,15.80
2023-05-22T22:30:35.156Z,15.80
2023-05-22T22:33:02.382Z,15.80
2023-05-22T22:35:29.406Z,15.70
2023-05-22T22:37:56.227Z,15.70
2023-05-22T22:40:24.711Z,15.70
2023-05-22T22:42:52.780Z,15.60
2023-05-22T22:45:19.634Z,15.60
2023-05-22T22:47:46.494Z,15.60
2023-05-22T22:50:13.347Z,15.50
2023-05-22T22:52:45.391Z,15.50
2023-05-22T22:55:12.592Z,15.50
2023-05-22T22:57:39.642Z,15.40
2023-05-22T23:00:08.326Z,15.40
2023-05-22T23:02:35.172Z,15.40
2023-05-22T23:05:02.199Z,15.30
2023-05-22T23:07:29.131Z,15.30
2023-05-22T23:09:56.079Z,15.30
2023-05-22T23:12:22.886Z,15.30
2023-05-22T23:14:53.584Z,15.30
2023-05-22T23:17:20.419Z,15.30
2023-05-22T23:19:47.232Z,15.30
2023-05-22T23:22:14.068Z,15.30
2023-05-22T23:24:40.819Z,15.20
2023-05-22T23:27:07.627Z,15.20
2023-05-22T23:29:34.415Z,15.20
2023-05-22T23:32:01.296Z,15.20
2023-05-22T23:34:28.165Z,15.10
2023-05-22T23:36:54.904Z,15.10
2023-05-22T23:39:21.693Z,15.10
2023-05-22T23:41:49.577Z,15.00
2023-05-22T23:44:16.359Z,15.00
2023-05-22T23:46:43.877Z,15.00
2023-05-22T23:49:10.912Z,14.90
2023-05-22T23:51:37.783Z,14.90
2023-05-22T23:54:04.729Z,14.90
2023-05-22T23:56:31.587Z,14.80
2023-05-22T23:58:58.726Z,14.80
